sensor_id;sensor_type;location;lat;lon;timestamp;P1;durP1;ratioP1;P2;durP2;ratioP2
66761;SDS011;53672;48.176;16.338;2023-05-09T00:01:53;8.17;;;4.23;;
66761;SDS011;53672;48.176;16.338;2023-05-09T00:06:54;8.93;;;4.50;;
66761;SDS011;53672;48.176;16.338;2023-05-09T00:11:54;9.20;;;4.70;;
66761;SDS011;53672;48.176;16.338;2023-05-09T00:16:56;9.87;;;4.70;;
66761;SDS011;53672;48.176;16.338;2023-05-09T00:21:56;8.52;;;4.45;;
66761;SDS011;53672;48.176;16.338;2023-05-09T00:26:57;10.20;;;4.37;;
66761;SDS011;53672;48.176;16.338;2023-05-09T00:31:59;9.33;;;4.63;;
66761;SDS011;53672;48.176;16.338;2023-05-09T00:36:59;7.83;;;4.03;;
66761;SDS011;53672;48.176;16.338;2023-05-09T00:42:00;9.40;;;4.10;;
66761;SDS011;53672;48.176;16.338;2023-05-09T00:47:01;9.00;;;4.45;;
66761;SDS011;53672;48.176;16.338;2023-05-09T00:52:02;8.10;;;4.50;;
66761;SDS011;53672;48.176;16.338;2023-05-09T00:57:04;9.23;;;4.57;;
66761;SDS011;53672;48.176;16.338;2023-05-09T01:02:06;8.07;;;4.20;;
66761;SDS011;53672;48.176;16.338;2023-05-09T01:07:09;10.45;;;5.22;;
66761;SDS011;53672;48.176;16.338;2023-05-09T01:12:15;11.50;;;5.13;;
66761;SDS011;53672;48.176;16.338;2023-05-09T01:17:30;10.30;;;4.60;;
66761;SDS011;53672;48.176;16.338;2023-05-09T01:22:38;8.97;;;4.70;;
66761;SDS011;53672;48.176;16.338;2023-05-09T01:27:45;9.70;;;4.70;;
66761;SDS011;53672;48.176;16.338;2023-05-09T01:32:52;11.23;;;5.07;;
66761;SDS011;53672;48.176;16.338;2023-05-09T01:37:58;9.45;;;4.43;;
66761;SDS011;53672;48.176;16.338;2023-05-09T01:43:01;9.60;;;4.28;;
66761;SDS011;53672;48.176;16.338;2023-05-09T01:48:07;10.80;;;4.53;;
66761;SDS011;53672;48.176;16.338;2023-05-09T01:53:10;8.65;;;4.47;;
66761;SDS011;53672;48.176;16.338;2023-05-09T01:58:11;9.38;;;4.85;;
66761;SDS011;53672;48.176;16.338;2023-05-09T02:03:15;9.25;;;4.93;;
66761;SDS011;53672;48.176;16.338;2023-05-09T02:08:15;10.80;;;4.63;;
66761;SDS011;53672;48.176;16.338;2023-05-09T02:13:17;10.77;;;4.90;;
66761;SDS011;53672;48.176;16.338;2023-05-09T02:18:19;9.73;;;5.00;;
66761;SDS011;53672;48.176;16.338;2023-05-09T02:23:20;9.82;;;5.03;;
66761;SDS011;53672;48.176;16.338;2023-05-09T02:28:21;10.60;;;5.50;;
66761;SDS011;53672;48.176;16.338;2023-05-09T02:33:23;9.40;;;4.95;;
66761;SDS011;53672;48.176;16.338;2023-05-09T02:38:25;10.90;;;5.07;;
66761;SDS011;53672;48.176;16.338;2023-05-09T02:43:25;11.00;;;5.00;;
66761;SDS011;53672;48.176;16.338;2023-05-09T02:48:27;9.67;;;4.73;;
66761;SDS011;53672;48.176;16.338;2023-05-09T02:53:27;10.57;;;5.30;;
66761;SDS011;53672;48.176;16.338;2023-05-09T02:58:28;15.77;;;5.47;;
66761;SDS011;53672;48.176;16.338;2023-05-09T03:03:30;9.97;;;4.70;;
66761;SDS011;53672;48.176;16.338;2023-05-09T03:08:31;10.27;;;4.80;;
66761;SDS011;53672;48.176;16.338;2023-05-09T03:13:31;9.97;;;4.83;;
66761;SDS011;53672;48.176;16.338;2023-05-09T03:18:33;8.33;;;4.20;;
66761;SDS011;53672;48.176;16.338;2023-05-09T03:23:34;8.48;;;4.55;;
66761;SDS011;53672;48.176;16.338;2023-05-09T03:28:34;7.18;;;3.60;;
66761;SDS011;53672;48.176;16.338;2023-05-09T03:33:36;10.83;;;4.60;;
66761;SDS011;53672;48.176;16.338;2023-05-09T03:38:36;8.77;;;4.10;;
66761;SDS011;53672;48.176;16.338;2023-05-09T03:43:37;9.70;;;4.53;;
66761;SDS011;53672;48.176;16.338;2023-05-09T03:48:38;10.03;;;4.57;;
66761;SDS011;53672;48.176;16.338;2023-05-09T03:53:39;11.00;;;4.20;;
66761;SDS011;53672;48.176;16.338;2023-05-09T03:58:39;10.00;;;4.43;;
66761;SDS011;53672;48.176;16.338;2023-05-09T04:03:41;10.00;;;4.43;;
66761;SDS011;53672;48.176;16.338;2023-05-09T04:08:42;10.27;;;4.60;;
66761;SDS011;53672;48.176;16.338;2023-05-09T04:13:42;11.10;;;4.70;;
66761;SDS011;53672;48.176;16.338;2023-05-09T04:18:44;13.17;;;4.83;;
66761;SDS011;53672;48.176;16.338;2023-05-09T04:23:45;14.90;;;4.30;;
66761;SDS011;53672;48.176;16.338;2023-05-09T04:28:45;8.10;;;4.13;;
66761;SDS011;53672;48.176;16.338;2023-05-09T04:33:47;10.00;;;4.57;;
66761;SDS011;53672;48.176;16.338;2023-05-09T04:38:48;9.55;;;4.35;;
66761;SDS011;53672;48.176;16.338;2023-05-09T04:43:48;8.83;;;4.73;;
66761;SDS011;53672;48.176;16.338;2023-05-09T04:48:50;8.60;;;4.33;;
66761;SDS011;53672;48.176;16.338;2023-05-09T04:53:50;9.50;;;4.37;;
66761;SDS011;53672;48.176;16.338;2023-05-09T04:58:51;8.80;;;4.80;;
66761;SDS011;53672;48.176;16.338;2023-05-09T05:03:53;9.18;;;4.28;;
66761;SDS011;53672;48.176;16.338;2023-05-09T05:08:53;9.07;;;4.57;;
66761;SDS011;53672;48.176;16.338;2023-05-09T05:13:54;9.60;;;4.33;;
66761;SDS011;53672;48.176;16.338;2023-05-09T05:18:55;7.40;;;4.00;;
66761;SDS011;53672;48.176;16.338;2023-05-09T05:23:56;8.60;;;4.28;;
66761;SDS011;53672;48.176;16.338;2023-05-09T05:28:56;10.40;;;4.37;;
66761;SDS011;53672;48.176;16.338;2023-05-09T05:33:58;8.80;;;3.87;;
66761;SDS011;53672;48.176;16.338;2023-05-09T05:38:59;8.25;;;4.07;;
66761;SDS011;53672;48.176;16.338;2023-05-09T05:43:59;7.77;;;4.10;;
66761;SDS011;53672;48.176;16.338;2023-05-09T05:49:01;8.27;;;4.30;;
66761;SDS011;53672;48.176;16.338;2023-05-09T05:54:01;10.40;;;4.22;;
66761;SDS011;53672;48.176;16.338;2023-05-09T05:59:02;8.63;;;4.35;;
66761;SDS011;53672;48.176;16.338;2023-05-09T06:04:04;8.63;;;4.13;;
66761;SDS011;53672;48.176;16.338;2023-05-09T06:09:04;7.47;;;3.70;;
66761;SDS011;53672;48.176;16.338;2023-05-09T06:14:05;10.93;;;4.00;;
66761;SDS011;53672;48.176;16.338;2023-05-09T06:19:06;7.17;;;3.70;;
66761;SDS011;53672;48.176;16.338;2023-05-09T06:24:07;10.75;;;4.15;;
66761;SDS011;53672;48.176;16.338;2023-05-09T06:29:07;8.73;;;4.50;;
66761;SDS011;53672;48.176;16.338;2023-05-09T06:34:09;7.63;;;3.77;;
66761;SDS011;53672;48.176;16.338;2023-05-09T06:39:10;7.68;;;3.60;;
66761;SDS011;53672;48.176;16.338;2023-05-09T06:44:10;7.00;;;3.67;;
66761;SDS011;53672;48.176;16.338;2023-05-09T06:49:12;7.13;;;3.80;;
66761;SDS011;53672;48.176;16.338;2023-05-09T06:54:13;8.07;;;3.50;;
66761;SDS011;53672;48.176;16.338;2023-05-09T06:59:13;7.73;;;3.80;;
66761;SDS011;53672;48.176;16.338;2023-05-09T07:04:15;7.73;;;3.50;;
66761;SDS011;53672;48.176;16.338;2023-05-09T07:09:15;8.75;;;3.70;;
66761;SDS011;53672;48.176;16.338;2023-05-09T07:14:16;7.50;;;3.85;;
66761;SDS011;53672;48.176;16.338;2023-05-09T07:19:18;6.30;;;2.97;;
66761;SDS011;53672;48.176;16.338;2023-05-09T07:24:18;7.20;;;3.60;;
66761;SDS011;53672;48.176;16.338;2023-05-09T07:29:19;9.57;;;4.27;;
66761;SDS011;53672;48.176;16.338;2023-05-09T07:34:21;7.43;;;3.70;;
66761;SDS011;53672;48.176;16.338;2023-05-09T07:39:21;8.70;;;4.07;;
66761;SDS011;53672;48.176;16.338;2023-05-09T07:44:21;8.87;;;3.33;;
66761;SDS011;53672;48.176;16.338;2023-05-09T07:49:23;8.50;;;4.07;;
66761;SDS011;53672;48.176;16.338;2023-05-09T07:54:24;9.70;;;4.00;;
66761;SDS011;53672;48.176;16.338;2023-05-09T07:59:24;7.40;;;3.50;;
66761;SDS011;53672;48.176;16.338;2023-05-09T08:04:26;7.47;;;3.97;;
66761;SDS011;53672;48.176;16.338;2023-05-09T08:09:27;7.80;;;3.90;;
66761;SDS011;53672;48.176;16.338;2023-05-09T08:14:27;7.47;;;3.80;;
66761;SDS011;53672;48.176;16.338;2023-05-09T08:19:29;6.73;;;3.53;;
66761;SDS011;53672;48.176;16.338;2023-05-09T08:24:29;8.23;;;4.00;;
66761;SDS011;53672;48.176;16.338;2023-05-09T08:29:30;9.63;;;4.75;;
66761;SDS011;53672;48.176;16.338;2023-05-09T08:34:32;7.07;;;3.83;;
66761;SDS011;53672;48.176;16.338;2023-05-09T08:39:32;8.57;;;3.67;;
66761;SDS011;53672;48.176;16.338;2023-05-09T08:44:33;8.33;;;3.60;;
66761;SDS011;53672;48.176;16.338;2023-05-09T08:49:35;6.45;;;3.38;;
66761;SDS011;53672;48.176;16.338;2023-05-09T08:54:35;6.07;;;3.17;;
66761;SDS011;53672;48.176;16.338;2023-05-09T08:59:36;7.60;;;3.70;;
66761;SDS011;53672;48.176;16.338;2023-05-09T09:04:40;6.95;;;3.63;;
66761;SDS011;53672;48.176;16.338;2023-05-09T09:09:42;7.80;;;3.65;;
66761;SDS011;53672;48.176;16.338;2023-05-09T09:14:45;6.93;;;3.63;;
66761;SDS011;53672;48.176;16.338;2023-05-09T09:19:50;7.20;;;3.53;;
66761;SDS011;53672;48.176;16.338;2023-05-09T09:24:54;7.13;;;3.83;;
66761;SDS011;53672;48.176;16.338;2023-05-09T09:30:00;6.43;;;4.07;;
66761;SDS011;53672;48.176;16.338;2023-05-09T09:35:07;6.85;;;3.90;;
66761;SDS011;53672;48.176;16.338;2023-05-09T09:40:10;9.88;;;4.20;;
66761;SDS011;53672;48.176;16.338;2023-05-09T09:45:11;5.70;;;4.40;;
66761;SDS011;53672;48.176;16.338;2023-05-09T09:50:17;5.82;;;4.05;;
66761;SDS011;53672;48.176;16.338;2023-05-09T09:55:19;5.78;;;4.30;;
66761;SDS011;53672;48.176;16.338;2023-05-09T10:00:23;5.90;;;4.50;;
66761;SDS011;53672;48.176;16.338;2023-05-09T10:05:28;5.75;;;4.57;;
66761;SDS011;53672;48.176;16.338;2023-05-09T10:10:30;7.00;;;4.23;;
66761;SDS011;53672;48.176;16.338;2023-05-09T10:15:33;6.65;;;4.80;;
66761;SDS011;53672;48.176;16.338;2023-05-09T10:20:36;6.38;;;4.53;;
66761;SDS011;53672;48.176;16.338;2023-05-09T10:25:38;8.60;;;5.35;;
66761;SDS011;53672;48.176;16.338;2023-05-09T10:30:45;8.82;;;5.10;;
66761;SDS011;53672;48.176;16.338;2023-05-09T10:36:04;6.67;;;4.70;;
66761;SDS011;53672;48.176;16.338;2023-05-09T10:41:06;7.85;;;4.25;;
66761;SDS011;53672;48.176;16.338;2023-05-09T10:46:07;6.65;;;4.40;;
66761;SDS011;53672;48.176;16.338;2023-05-09T10:51:10;5.25;;;3.90;;
66761;SDS011;53672;48.176;16.338;2023-05-09T10:56:21;7.75;;;4.10;;
66761;SDS011;53672;48.176;16.338;2023-05-09T11:01:29;5.95;;;4.30;;
66761;SDS011;53672;48.176;16.338;2023-05-09T11:06:46;6.20;;;4.03;;
66761;SDS011;53672;48.176;16.338;2023-05-09T11:11:50;8.20;;;4.50;;
66761;SDS011;53672;48.176;16.338;2023-05-09T11:16:56;7.00;;;4.30;;
66761;SDS011;53672;48.176;16.338;2023-05-09T11:22:01;7.63;;;4.50;;
66761;SDS011;53672;48.176;16.338;2023-05-09T11:27:14;8.48;;;4.65;;
66761;SDS011;53672;48.176;16.338;2023-05-09T11:32:15;7.40;;;4.40;;
66761;SDS011;53672;48.176;16.338;2023-05-09T11:37:17;6.43;;;4.17;;
66761;SDS011;53672;48.176;16.338;2023-05-09T11:42:18;6.50;;;3.83;;
66761;SDS011;53672;48.176;16.338;2023-05-09T11:47:20;6.60;;;3.90;;
66761;SDS011;53672;48.176;16.338;2023-05-09T11:52:22;6.15;;;3.88;;
66761;SDS011;53672;48.176;16.338;2023-05-09T11:57:22;6.60;;;3.83;;
66761;SDS011;53672;48.176;16.338;2023-05-09T12:02:23;6.60;;;3.70;;
66761;SDS011;53672;48.176;16.338;2023-05-09T12:07:24;6.20;;;3.95;;
66761;SDS011;53672;48.176;16.338;2023-05-09T12:12:25;7.32;;;4.25;;
66761;SDS011;53672;48.176;16.338;2023-05-09T12:17:25;6.27;;;3.47;;
66761;SDS011;53672;48.176;16.338;2023-05-09T12:22:27;6.07;;;3.17;;
66761;SDS011;53672;48.176;16.338;2023-05-09T12:27:28;5.45;;;3.33;;
66761;SDS011;53672;48.176;16.338;2023-05-09T12:32:28;5.40;;;3.20;;
66761;SDS011;53672;48.176;16.338;2023-05-09T12:37:31;6.25;;;3.63;;
66761;SDS011;53672;48.176;16.338;2023-05-09T12:42:31;5.43;;;3.10;;
66761;SDS011;53672;48.176;16.338;2023-05-09T12:47:33;7.70;;;3.13;;
66761;SDS011;53672;48.176;16.338;2023-05-09T12:52:37;6.80;;;3.37;;
66761;SDS011;53672;48.176;16.338;2023-05-09T12:57:40;6.55;;;3.28;;
66761;SDS011;53672;48.176;16.338;2023-05-09T13:02:40;5.30;;;3.00;;
66761;SDS011;53672;48.176;16.338;2023-05-09T13:07:43;5.80;;;2.87;;
66761;SDS011;53672;48.176;16.338;2023-05-09T13:12:45;7.00;;;3.08;;
66761;SDS011;53672;48.176;16.338;2023-05-09T13:17:46;5.77;;;2.60;;
66761;SDS011;53672;48.176;16.338;2023-05-09T13:22:48;9.18;;;3.22;;
66761;SDS011;53672;48.176;16.338;2023-05-09T13:27:49;5.82;;;3.03;;
66761;SDS011;53672;48.176;16.338;2023-05-09T13:32:49;5.65;;;2.90;;
66761;SDS011;53672;48.176;16.338;2023-05-09T13:37:51;8.13;;;3.10;;
66761;SDS011;53672;48.176;16.338;2023-05-09T13:42:52;6.73;;;3.07;;
66761;SDS011;53672;48.176;16.338;2023-05-09T13:47:52;6.57;;;3.10;;
66761;SDS011;53672;48.176;16.338;2023-05-09T13:52:54;5.57;;;2.90;;
66761;SDS011;53672;48.176;16.338;2023-05-09T13:57:55;4.82;;;2.90;;
66761;SDS011;53672;48.176;16.338;2023-05-09T14:02:55;7.03;;;3.13;;
66761;SDS011;53672;48.176;16.338;2023-05-09T14:07:57;8.80;;;3.42;;
66761;SDS011;53672;48.176;16.338;2023-05-09T14:12:58;5.47;;;3.10;;
66761;SDS011;53672;48.176;16.338;2023-05-09T14:17:58;6.73;;;3.07;;
66761;SDS011;53672;48.176;16.338;2023-05-09T14:23:00;6.50;;;2.70;;
66761;SDS011;53672;48.176;16.338;2023-05-09T14:28:00;6.30;;;3.10;;
66761;SDS011;53672;48.176;16.338;2023-05-09T14:33:01;5.70;;;3.00;;
66761;SDS011;53672;48.176;16.338;2023-05-09T14:38:03;8.60;;;3.03;;
66761;SDS011;53672;48.176;16.338;2023-05-09T14:43:03;6.78;;;2.92;;
66761;SDS011;53672;48.176;16.338;2023-05-09T14:48:04;5.00;;;2.40;;
66761;SDS011;53672;48.176;16.338;2023-05-09T14:53:06;5.63;;;2.80;;
66761;SDS011;53672;48.176;16.338;2023-05-09T14:58:06;5.88;;;3.03;;
66761;SDS011;53672;48.176;16.338;2023-05-09T15:03:07;5.50;;;2.80;;
66761;SDS011;53672;48.176;16.338;2023-05-09T15:08:08;6.07;;;2.83;;
66761;SDS011;53672;48.176;16.338;2023-05-09T15:13:09;6.50;;;3.15;;
66761;SDS011;53672;48.176;16.338;2023-05-09T15:18:10;6.63;;;3.17;;
66761;SDS011;53672;48.176;16.338;2023-05-09T15:23:11;5.63;;;3.00;;
66761;SDS011;53672;48.176;16.338;2023-05-09T15:28:12;6.70;;;2.85;;
66761;SDS011;53672;48.176;16.338;2023-05-09T15:33:12;5.17;;;2.93;;
66761;SDS011;53672;48.176;16.338;2023-05-09T15:38:14;5.60;;;2.90;;
66761;SDS011;53672;48.176;16.338;2023-05-09T15:43:15;6.60;;;2.93;;
66761;SDS011;53672;48.176;16.338;2023-05-09T15:48:15;5.90;;;2.80;;
66761;SDS011;53672;48.176;16.338;2023-05-09T15:53:17;5.93;;;2.80;;
66761;SDS011;53672;48.176;16.338;2023-05-09T15:58:18;4.40;;;2.37;;
66761;SDS011;53672;48.176;16.338;2023-05-09T16:03:18;5.30;;;2.97;;
66761;SDS011;53672;48.176;16.338;2023-05-09T16:08:20;5.33;;;2.70;;
66761;SDS011;53672;48.176;16.338;2023-05-09T16:13:20;5.65;;;2.72;;
66761;SDS011;53672;48.176;16.338;2023-05-09T16:18:21;5.93;;;2.70;;
66761;SDS011;53672;48.176;16.338;2023-05-09T16:23:23;5.40;;;2.70;;
66761;SDS011;53672;48.176;16.338;2023-05-09T16:28:23;7.28;;;2.83;;
66761;SDS011;53672;48.176;16.338;2023-05-09T16:33:24;5.47;;;2.30;;
66761;SDS011;53672;48.176;16.338;2023-05-09T16:38:26;5.17;;;2.37;;
66761;SDS011;53672;48.176;16.338;2023-05-09T16:43:26;6.25;;;2.50;;
66761;SDS011;53672;48.176;16.338;2023-05-09T16:48:27;5.03;;;2.43;;
66761;SDS011;53672;48.176;16.338;2023-05-09T16:53:29;5.07;;;2.50;;
66761;SDS011;53672;48.176;16.338;2023-05-09T16:58:29;5.30;;;2.60;;
66761;SDS011;53672;48.176;16.338;2023-05-09T17:03:29;5.40;;;2.40;;
66761;SDS011;53672;48.176;16.338;2023-05-09T17:08:31;5.70;;;2.47;;
66761;SDS011;53672;48.176;16.338;2023-05-09T17:13:32;6.07;;;2.43;;
66761;SDS011;53672;48.176;16.338;2023-05-09T17:18:32;4.53;;;2.20;;
66761;SDS011;53672;48.176;16.338;2023-05-09T17:23:34;5.13;;;2.40;;
66761;SDS011;53672;48.176;16.338;2023-05-09T17:28:34;4.93;;;2.50;;
66761;SDS011;53672;48.176;16.338;2023-05-09T17:33:35;7.90;;;2.63;;
66761;SDS011;53672;48.176;16.338;2023-05-09T17:38:37;5.13;;;2.50;;
66761;SDS011;53672;48.176;16.338;2023-05-09T17:43:37;6.20;;;2.67;;
66761;SDS011;53672;48.176;16.338;2023-05-09T17:48:38;4.97;;;2.67;;
66761;SDS011;53672;48.176;16.338;2023-05-09T17:53:39;6.17;;;2.30;;
66761;SDS011;53672;48.176;16.338;2023-05-09T17:58:40;5.10;;;2.20;;
66761;SDS011;53672;48.176;16.338;2023-05-09T18:03:40;5.87;;;2.57;;
66761;SDS011;53672;48.176;16.338;2023-05-09T18:08:42;7.40;;;2.40;;
66761;SDS011;53672;48.176;16.338;2023-05-09T18:13:43;6.50;;;2.30;;
66761;SDS011;53672;48.176;16.338;2023-05-09T18:18:43;5.27;;;2.47;;
66761;SDS011;53672;48.176;16.338;2023-05-09T18:23:45;4.60;;;2.38;;
66761;SDS011;53672;48.176;16.338;2023-05-09T18:28:45;7.00;;;2.70;;
66761;SDS011;53672;48.176;16.338;2023-05-09T18:33:46;5.97;;;2.50;;
66761;SDS011;53672;48.176;16.338;2023-05-09T18:38:48;6.32;;;2.78;;
66761;SDS011;53672;48.176;16.338;2023-05-09T18:43:48;4.67;;;2.20;;
66761;SDS011;53672;48.176;16.338;2023-05-09T18:48:49;4.77;;;2.77;;
66761;SDS011;53672;48.176;16.338;2023-05-09T18:53:52;5.75;;;2.53;;
66761;SDS011;53672;48.176;16.338;2023-05-09T18:58:52;7.78;;;3.00;;
66761;SDS011;53672;48.176;16.338;2023-05-09T19:03:53;6.40;;;3.10;;
66761;SDS011;53672;48.176;16.338;2023-05-09T19:08:54;7.07;;;2.97;;
66761;SDS011;53672;48.176;16.338;2023-05-09T19:13:55;6.17;;;3.17;;
66761;SDS011;53672;48.176;16.338;2023-05-09T19:18:57;6.68;;;2.72;;
66761;SDS011;53672;48.176;16.338;2023-05-09T19:23:59;7.05;;;3.08;;
66761;SDS011;53672;48.176;16.338;2023-05-09T19:28:59;5.82;;;2.70;;
66761;SDS011;53672;48.176;16.338;2023-05-09T19:34:00;6.00;;;2.80;;
66761;SDS011;53672;48.176;16.338;2023-05-09T19:39:02;6.22;;;2.60;;
66761;SDS011;53672;48.176;16.338;2023-05-09T19:44:03;6.70;;;3.10;;
66761;SDS011;53672;48.176;16.338;2023-05-09T19:49:04;6.20;;;2.95;;
66761;SDS011;53672;48.176;16.338;2023-05-09T19:54:09;5.80;;;2.90;;
66761;SDS011;53672;48.176;16.338;2023-05-09T19:59:10;5.90;;;3.08;;
66761;SDS011;53672;48.176;16.338;2023-05-09T20:04:10;7.18;;;3.40;;
66761;SDS011;53672;48.176;16.338;2023-05-09T20:09:12;5.80;;;2.77;;
66761;SDS011;53672;48.176;16.338;2023-05-09T20:14:13;6.03;;;2.95;;
66761;SDS011;53672;48.176;16.338;2023-05-09T20:19:13;6.25;;;3.35;;
66761;SDS011;53672;48.176;16.338;2023-05-09T20:24:15;6.47;;;3.40;;
66761;SDS011;53672;48.176;16.338;2023-05-09T20:29:16;6.97;;;3.13;;
66761;SDS011;53672;48.176;16.338;2023-05-09T20:34:17;5.73;;;2.80;;
66761;SDS011;53672;48.176;16.338;2023-05-09T20:39:19;7.80;;;3.40;;
66761;SDS011;53672;48.176;16.338;2023-05-09T20:44:20;10.30;;;3.15;;
66761;SDS011;53672;48.176;16.338;2023-05-09T20:49:21;6.47;;;3.42;;
66761;SDS011;53672;48.176;16.338;2023-05-09T20:54:23;6.35;;;3.10;;
66761;SDS011;53672;48.176;16.338;2023-05-09T20:59:23;6.10;;;3.37;;
66761;SDS011;53672;48.176;16.338;2023-05-09T21:04:24;6.17;;;3.33;;
66761;SDS011;53672;48.176;16.338;2023-05-09T21:09:26;6.45;;;2.50;;
66761;SDS011;53672;48.176;16.338;2023-05-09T21:14:26;6.77;;;3.07;;
66761;SDS011;53672;48.176;16.338;2023-05-09T21:19:26;6.50;;;3.00;;
66761;SDS011;53672;48.176;16.338;2023-05-09T21:24:28;6.60;;;3.20;;
66761;SDS011;53672;48.176;16.338;2023-05-09T21:29:29;7.78;;;3.08;;
66761;SDS011;53672;48.176;16.338;2023-05-09T21:34:29;5.47;;;2.90;;
66761;SDS011;53672;48.176;16.338;2023-05-09T21:39:31;5.50;;;2.67;;
66761;SDS011;53672;48.176;16.338;2023-05-09T21:44:32;5.65;;;2.95;;
66761;SDS011;53672;48.176;16.338;2023-05-09T21:49:32;8.13;;;2.73;;
66761;SDS011;53672;48.176;16.338;2023-05-09T21:54:34;7.03;;;3.03;;
66761;SDS011;53672;48.176;16.338;2023-05-09T21:59:35;6.50;;;3.10;;
66761;SDS011;53672;48.176;16.338;2023-05-09T22:04:35;7.43;;;2.87;;
66761;SDS011;53672;48.176;16.338;2023-05-09T22:09:37;5.53;;;2.70;;
66761;SDS011;53672;48.176;16.338;2023-05-09T22:14:38;7.60;;;3.22;;
66761;SDS011;53672;48.176;16.338;2023-05-09T22:19:39;6.50;;;3.33;;
66761;SDS011;53672;48.176;16.338;2023-05-09T22:24:41;6.28;;;2.78;;
66761;SDS011;53672;48.176;16.338;2023-05-09T22:29:41;6.10;;;3.07;;
66761;SDS011;53672;48.176;16.338;2023-05-09T22:34:41;7.47;;;3.00;;
66761;SDS011;53672;48.176;16.338;2023-05-09T22:39:47;6.68;;;2.80;;
66761;SDS011;53672;48.176;16.338;2023-05-09T22:44:47;6.97;;;3.28;;
66761;SDS011;53672;48.176;16.338;2023-05-09T22:49:48;5.50;;;2.77;;
66761;SDS011;53672;48.176;16.338;2023-05-09T22:54:50;6.38;;;2.55;;
66761;SDS011;53672;48.176;16.338;2023-05-09T22:59:51;7.23;;;3.47;;
66761;SDS011;53672;48.176;16.338;2023-05-09T23:04:51;5.63;;;2.80;;
66761;SDS011;53672;48.176;16.338;2023-05-09T23:09:53;7.47;;;3.40;;
66761;SDS011;53672;48.176;16.338;2023-05-09T23:14:53;6.10;;;2.90;;
66761;SDS011;53672;48.176;16.338;2023-05-09T23:19:54;7.40;;;2.97;;
66761;SDS011;53672;48.176;16.338;2023-05-09T23:24:56;6.63;;;2.90;;
66761;SDS011;53672;48.176;16.338;2023-05-09T23:29:56;6.90;;;2.55;;
66761;SDS011;53672;48.176;16.338;2023-05-09T23:34:57;6.90;;;3.10;;
66761;SDS011;53672;48.176;16.338;2023-05-09T23:39:58;7.80;;;3.00;;
66761;SDS011;53672;48.176;16.338;2023-05-09T23:44:59;5.63;;;2.63;;
66761;SDS011;53672;48.176;16.338;2023-05-09T23:49:59;5.77;;;2.43;;
66761;SDS011;53672;48.176;16.338;2023-05-09T23:55:01;7.53;;;2.93;;
